createdAt,value
2018-10-12T00:00:13.638Z,14.96
2018-10-12T00:02:44.036Z,14.95
2018-10-12T00:05:13.889Z,14.95
2018-10-12T00:07:43.609Z,14.92
2018-10-12T00:10:13.132Z,14.90
2018-10-12T00:12:42.666Z,14.87
2018-10-12T00:15:12.409Z,14.89
2018-10-12T00:17:41.864Z,14.86
2018-10-12T00:20:11.306Z,14.86
2018-10-12T00:22:40.540Z,14.84
2018-10-12T00:25:10.082Z,14.84
2018-10-12T00:27:39.792Z,14.84
2018-10-12T00:30:09.316Z,14.81
2018-10-12T00:32:38.925Z,14.84
2018-10-12T00:35:08.877Z,14.77
2018-10-12T00:37:38.326Z,14.75
2018-10-12T00:40:07.725Z,14.67
2018-10-12T00:42:37.336Z,14.67
2018-10-12T00:45:06.875Z,14.69
2018-10-12T00:47:36.216Z,14.70
2018-10-12T00:50:05.809Z,14.69
2018-10-12T00:52:35.248Z,14.63
2018-10-12T00:55:04.886Z,14.61
2018-10-12T00:57:34.397Z,14.42
2018-10-12T01:00:04.267Z,14.56
2018-10-12T01:02:33.505Z,14.58
2018-10-12T01:05:03.001Z,14.57
2018-10-12T01:07:32.549Z,14.55
2018-10-12T01:10:01.936Z,14.50
2018-10-12T01:12:36.365Z,14.52
2018-10-12T01:15:06.241Z,14.54
2018-10-12T01:17:36.155Z,14.51
2018-10-12T01:20:07.233Z,14.51
2018-10-12T01:22:37.070Z,14.50
2018-10-12T01:25:07.423Z,14.50
2018-10-12T01:27:37.198Z,14.50
2018-10-12T01:30:07.198Z,14.49
2018-10-12T01:32:41.762Z,14.50
2018-10-12T01:35:11.365Z,14.49
2018-10-12T01:37:41.079Z,14.50
2018-10-12T01:40:10.477Z,14.50
2018-10-12T01:42:40.031Z,14.47
2018-10-12T01:45:09.365Z,14.48
2018-10-12T01:47:38.559Z,14.46
2018-10-12T01:50:08.199Z,14.42
2018-10-12T01:52:37.492Z,14.39
2018-10-12T01:55:07.043Z,14.39
2018-10-12T01:57:36.761Z,14.39
2018-10-12T02:00:06.378Z,14.37
2018-10-12T02:02:35.713Z,14.39
2018-10-12T02:05:05.478Z,14.37
2018-10-12T02:07:34.873Z,14.35
2018-10-12T02:10:04.614Z,14.37
2018-10-12T02:12:34.146Z,14.34
2018-10-12T02:15:03.450Z,14.31
2018-10-12T02:17:32.811Z,14.33
2018-10-12T02:20:02.655Z,14.29
2018-10-12T02:22:31.921Z,14.27
2018-10-12T02:25:01.279Z,14.27
2018-10-12T02:27:30.715Z,14.27
2018-10-12T02:30:00.272Z,14.28
2018-10-12T02:32:29.723Z,14.31
2018-10-12T02:34:59.591Z,14.28
2018-10-12T02:37:28.935Z,14.29
2018-10-12T02:39:58.249Z,14.28
2018-10-12T02:42:27.909Z,14.28
2018-10-12T02:44:57.150Z,14.26
2018-10-12T02:47:26.494Z,14.22
2018-10-12T02:49:56.167Z,14.21
2018-10-12T02:52:25.516Z,14.26
2018-10-12T02:54:54.738Z,14.32
2018-10-12T02:57:24.358Z,14.31
2018-10-12T02:59:53.795Z,14.25
2018-10-12T03:02:23.123Z,14.22
2018-10-12T03:04:52.632Z,14.21
2018-10-12T03:07:21.973Z,14.19
2018-10-12T03:09:51.297Z,14.16
2018-10-12T03:12:20.841Z,14.13
2018-10-12T03:14:50.493Z,14.14
2018-10-12T03:17:19.919Z,14.15
2018-10-12T03:19:49.781Z,14.14
2018-10-12T03:22:19.211Z,14.11
2018-10-12T03:24:48.457Z,14.12
2018-10-12T03:27:18.056Z,14.13
2018-10-12T03:29:47.469Z,14.13
2018-10-12T03:32:17.449Z,14.09
2018-10-12T03:34:47.410Z,14.11
2018-10-12T03:37:17.430Z,14.08
2018-10-12T03:39:46.927Z,14.07
2018-10-12T03:42:16.448Z,14.04
2018-10-12T03:44:45.766Z,14.01
2018-10-12T03:47:15.354Z,13.99
2018-10-12T03:49:45.147Z,13.97
2018-10-12T03:52:14.943Z,13.93
2018-10-12T03:54:44.170Z,13.94
2018-10-12T03:57:13.622Z,13.90
2018-10-12T03:59:43.744Z,13.89
2018-10-12T04:02:12.925Z,13.83
2018-10-12T04:04:42.670Z,13.81
2018-10-12T04:07:12.368Z,13.79
2018-10-12T04:09:41.577Z,13.80
2018-10-12T04:12:11.216Z,13.78
2018-10-12T04:14:40.642Z,13.74
2018-10-12T04:17:09.880Z,13.73
2018-10-12T04:19:39.445Z,13.73
2018-10-12T04:22:08.701Z,13.67
2018-10-12T04:24:37.762Z,13.64
2018-10-12T04:27:07.270Z,13.58
2018-10-12T04:29:36.698Z,13.61
2018-10-12T04:32:06.130Z,13.61
2018-10-12T04:34:35.651Z,13.59
2018-10-12T04:37:05.006Z,13.55
2018-10-12T04:39:46.275Z,13.55
2018-10-12T04:42:15.601Z,13.57
2018-10-12T04:44:44.917Z,13.56
2018-10-12T04:47:14.518Z,13.55
2018-10-12T04:49:44.214Z,13.52
2018-10-12T04:52:14.029Z,13.54
2018-10-12T04:54:43.744Z,13.56
2018-10-12T04:57:13.066Z,13.54
2018-10-12T04:59:42.455Z,13.49
2018-10-12T05:02:12.011Z,13.51
2018-10-12T05:04:41.340Z,13.50
2018-10-12T05:07:10.539Z,13.47
2018-10-12T05:09:40.056Z,13.46
2018-10-12T05:12:09.631Z,13.40
2018-10-12T05:14:39.153Z,13.36
2018-10-12T05:17:08.973Z,13.36
2018-10-12T05:19:38.289Z,13.32
2018-10-12T05:22:07.553Z,13.32
2018-10-12T05:24:37.089Z,13.32
2018-10-12T05:27:06.800Z,13.30
2018-10-12T05:29:35.992Z,13.30
2018-10-12T05:32:05.487Z,13.30
2018-10-12T05:34:34.814Z,13.28
2018-10-12T05:37:04.133Z,13.27
2018-10-12T05:39:33.712Z,13.25
2018-10-12T05:42:03.061Z,13.23
2018-10-12T05:44:32.352Z,13.22
2018-10-12T05:47:01.774Z,13.21
2018-10-12T05:49:42.054Z,13.20
2018-10-12T05:52:11.663Z,13.19
2018-10-12T05:54:41.048Z,13.21
2018-10-12T05:57:10.890Z,13.19
2018-10-12T05:59:40.043Z,13.23
2018-10-12T06:02:09.461Z,13.15
2018-10-12T06:04:39.080Z,13.31
2018-10-12T06:07:08.382Z,13.31
2018-10-12T06:09:37.941Z,13.32
2018-10-12T06:12:07.252Z,13.35
2018-10-12T06:14:36.600Z,13.34
2018-10-12T06:17:05.892Z,13.35
2018-10-12T06:19:35.286Z,13.37
2018-10-12T06:22:04.583Z,13.37
2018-10-12T06:24:33.779Z,13.36
2018-10-12T06:27:03.317Z,13.36
2018-10-12T06:29:32.695Z,13.29
2018-10-12T06:32:02.057Z,13.30
2018-10-12T06:34:31.640Z,13.27
2018-10-12T06:37:01.126Z,13.25
2018-10-12T06:39:30.516Z,13.27
2018-10-12T06:42:00.018Z,13.30
2018-10-12T06:44:29.313Z,13.32
2018-10-12T06:46:58.598Z,13.30
2018-10-12T06:49:28.276Z,13.32
2018-10-12T06:51:57.656Z,13.32
2018-10-12T06:54:27.346Z,13.29
2018-10-12T06:56:56.860Z,13.32
2018-10-12T06:59:26.308Z,13.36
2018-10-12T07:01:55.565Z,13.41
2018-10-12T07:04:25.232Z,13.43
2018-10-12T07:06:54.581Z,13.50
2018-10-12T07:09:24.429Z,13.50
2018-10-12T07:11:53.799Z,13.57
2018-10-12T07:14:23.095Z,13.62
2018-10-12T07:16:52.305Z,13.69
2018-10-12T07:19:21.678Z,13.71
2018-10-12T07:21:50.990Z,13.76
2018-10-12T07:24:20.306Z,13.82
2018-10-12T07:26:50.071Z,13.86
2018-10-12T07:29:19.555Z,13.92
2018-10-12T07:31:49.089Z,13.99
2018-10-12T07:34:18.881Z,14.00
2018-10-12T07:36:48.387Z,14.05
2018-10-12T07:39:17.641Z,14.06
2018-10-12T07:41:47.559Z,14.12
2018-10-12T07:44:17.358Z,14.22
2018-10-12T07:46:46.900Z,14.38
2018-10-12T07:49:16.546Z,14.58
2018-10-12T07:51:45.842Z,14.52
2018-10-12T07:54:15.124Z,14.50
2018-10-12T07:56:44.660Z,14.56
2018-10-12T07:59:14.115Z,14.60
2018-10-12T08:01:43.602Z,14.66
2018-10-12T08:04:13.123Z,14.71
2018-10-12T08:06:42.482Z,14.73
2018-10-12T08:09:12.123Z,14.78
2018-10-12T08:11:41.729Z,14.83
2018-10-12T08:14:11.462Z,14.90
2018-10-12T08:16:40.919Z,14.96
2018-10-12T08:19:12.576Z,15.02
2018-10-12T08:21:42.275Z,15.10
2018-10-12T08:24:11.771Z,15.15
2018-10-12T08:26:41.656Z,15.18
2018-10-12T08:29:10.949Z,15.21
2018-10-12T08:31:40.543Z,15.26
2018-10-12T08:34:10.309Z,15.29
2018-10-12T08:36:39.676Z,15.33
2018-10-12T08:39:10.602Z,15.36
2018-10-12T08:41:40.850Z,15.39
2018-10-12T08:44:10.153Z,15.44
2018-10-12T08:46:39.692Z,15.48
2018-10-12T08:49:09.199Z,15.51
2018-10-12T08:51:38.700Z,15.57
2018-10-12T08:54:08.136Z,15.59
2018-10-12T08:56:37.879Z,15.62
2018-10-12T09:01:58.328Z,15.72
2018-10-12T09:04:27.467Z,15.78
2018-10-12T09:06:56.826Z,15.81
2018-10-12T09:09:26.266Z,15.86
2018-10-12T09:11:55.917Z,15.91
2018-10-12T09:14:25.328Z,15.96
2018-10-12T09:16:55.283Z,16.07
2018-10-12T09:19:24.661Z,16.22
2018-10-12T09:21:54.390Z,16.37
2018-10-12T09:24:24.146Z,16.55
2018-10-12T09:26:53.314Z,16.59
2018-10-12T09:29:23.153Z,16.70
2018-10-12T09:31:53.387Z,16.79
2018-10-12T09:34:23.648Z,16.91
2018-10-12T09:36:52.989Z,17.05
2018-10-12T09:39:22.459Z,17.00
2018-10-12T09:41:51.914Z,16.96
2018-10-12T09:44:21.226Z,17.09
2018-10-12T09:46:50.952Z,17.26
2018-10-12T09:49:20.374Z,17.39
2018-10-12T09:51:50.183Z,17.50
2018-10-12T09:54:20.104Z,17.58
2018-10-12T09:56:54.669Z,17.72
2018-10-12T09:59:24.345Z,17.87
2018-10-12T10:01:58.943Z,17.93
2018-10-12T10:04:33.897Z,17.86
2018-10-12T10:07:04.301Z,17.85
2018-10-12T10:09:33.865Z,17.80
2018-10-12T10:12:04.283Z,18.03
2018-10-12T10:14:33.602Z,17.99
2018-10-12T10:17:03.197Z,17.99
2018-10-12T10:19:32.515Z,18.05
2018-10-12T10:22:01.983Z,18.11
2018-10-12T10:24:31.251Z,18.13
2018-10-12T10:27:00.733Z,18.18
2018-10-12T10:29:30.224Z,18.21
2018-10-12T10:31:59.856Z,18.26
2018-10-12T10:34:29.286Z,18.28
2018-10-12T10:36:58.609Z,18.30
2018-10-12T10:39:28.342Z,18.34
2018-10-12T10:41:57.739Z,18.39
2018-10-12T10:44:27.219Z,18.45
2018-10-12T10:46:56.859Z,18.48
2018-10-12T10:49:26.466Z,18.54
2018-10-12T10:51:55.819Z,18.60
2018-10-12T10:54:25.589Z,18.67
2018-10-12T10:56:59.098Z,18.75
2018-10-12T10:59:28.938Z,18.86
2018-10-12T11:01:58.593Z,18.92
2018-10-12T11:04:28.059Z,18.95
2018-10-12T11:06:57.508Z,19.02
2018-10-12T11:09:27.448Z,19.07
2018-10-12T11:11:56.973Z,19.13
2018-10-12T11:14:26.534Z,19.21
2018-10-12T11:16:55.819Z,19.28
2018-10-12T11:19:25.076Z,19.35
2018-10-12T11:21:54.636Z,19.46
2018-10-12T11:24:23.873Z,19.45
2018-10-12T11:26:53.266Z,19.46
2018-10-12T11:29:22.944Z,19.45
2018-10-12T11:31:52.246Z,19.52
2018-10-12T11:34:23.076Z,19.55
2018-10-12T11:36:52.735Z,19.55
2018-10-12T11:39:22.093Z,19.59
2018-10-12T11:41:51.536Z,19.64
2018-10-12T11:44:21.179Z,19.64
2018-10-12T11:46:50.513Z,19.04
2018-10-12T11:49:20.279Z,19.68
2018-10-12T11:51:50.090Z,19.70
2018-10-12T11:54:19.546Z,19.71
2018-10-12T11:56:49.466Z,19.72
2018-10-12T11:59:19.016Z,19.70
2018-10-12T12:01:48.563Z,19.63
2018-10-12T12:04:17.868Z,19.50
2018-10-12T12:06:47.357Z,19.44
2018-10-12T12:09:16.847Z,19.40
2018-10-12T12:11:46.268Z,19.34
2018-10-12T12:14:16.431Z,19.30
2018-10-12T12:16:45.694Z,19.28
2018-10-12T12:22:05.511Z,19.23
2018-10-12T12:24:34.420Z,19.23
2018-10-12T12:27:03.797Z,19.28
2018-10-12T12:29:33.459Z,19.29
2018-10-12T12:32:02.921Z,19.23
2018-10-12T12:34:32.408Z,19.17
2018-10-12T12:37:01.879Z,19.24
2018-10-12T12:39:31.277Z,19.32
2018-10-12T12:42:00.438Z,19.57
2018-10-12T12:44:29.874Z,19.47
2018-10-12T12:46:59.463Z,19.35
2018-10-12T12:49:28.994Z,19.29
2018-10-12T12:51:58.432Z,19.22
2018-10-12T12:54:27.982Z,19.22
2018-10-12T12:56:57.243Z,19.17
2018-10-12T12:59:27.034Z,19.16
2018-10-12T13:01:56.490Z,19.18
2018-10-12T13:04:25.823Z,19.19
2018-10-12T13:06:55.227Z,19.13
2018-10-12T13:09:24.762Z,19.06
2018-10-12T13:11:54.100Z,18.94
2018-10-12T13:14:23.830Z,18.93
2018-10-12T13:16:53.057Z,18.95
2018-10-12T13:19:22.615Z,18.97
2018-10-12T13:21:52.055Z,18.97
2018-10-12T13:24:21.521Z,18.90
2018-10-12T13:26:50.806Z,18.88
2018-10-12T13:29:20.323Z,18.83
2018-10-12T13:31:49.772Z,18.75
2018-10-12T13:34:19.273Z,18.71
2018-10-12T13:36:48.781Z,18.70
2018-10-12T13:39:18.382Z,18.64
2018-10-12T13:41:47.897Z,18.63
2018-10-12T13:44:17.335Z,18.60
2018-10-12T13:46:46.863Z,18.60
2018-10-12T13:49:16.370Z,18.59
2018-10-12T13:51:46.326Z,18.56
2018-10-12T13:54:16.087Z,18.60
2018-10-12T13:56:45.460Z,18.54
2018-10-12T13:59:15.328Z,18.50
2018-10-12T14:01:44.580Z,18.49
2018-10-12T14:04:13.882Z,18.46
2018-10-12T14:06:43.855Z,18.41
2018-10-12T14:09:13.234Z,18.37
2018-10-12T14:11:42.462Z,18.34
2018-10-12T14:14:11.982Z,18.33
2018-10-12T14:16:41.313Z,18.28
2018-10-12T14:19:10.998Z,18.23
2018-10-12T14:21:40.455Z,18.20
2018-10-12T14:24:09.998Z,18.16
2018-10-12T14:26:39.362Z,18.11
2018-10-12T14:29:09.004Z,18.09
2018-10-12T14:31:38.339Z,18.09
2018-10-12T14:34:07.853Z,18.07
2018-10-12T14:36:37.361Z,17.80
2018-10-12T14:39:08.796Z,18.06
2018-10-12T14:41:38.173Z,18.04
2018-10-12T14:44:07.548Z,18.01
2018-10-12T14:46:37.077Z,17.99
2018-10-12T14:49:06.485Z,17.93
2018-10-12T14:51:36.017Z,17.92
2018-10-12T14:54:05.915Z,17.86
2018-10-12T14:56:35.417Z,17.82
2018-10-12T14:59:04.817Z,17.80
2018-10-12T15:01:34.307Z,17.81
2018-10-12T15:04:04.438Z,17.78
2018-10-12T15:06:33.672Z,17.75
2018-10-12T15:09:04.503Z,17.75
2018-10-12T15:11:34.127Z,17.74
2018-10-12T15:14:03.693Z,17.72
2018-10-12T15:16:33.222Z,17.69
2018-10-12T15:19:03.013Z,17.53
2018-10-12T15:21:32.701Z,17.68
2018-10-12T15:24:02.090Z,17.68
2018-10-12T15:26:31.410Z,17.67
2018-10-12T15:29:00.804Z,17.64
2018-10-12T15:31:30.007Z,17.62
2018-10-12T15:33:59.549Z,17.59
2018-10-12T15:36:28.898Z,17.58
2018-10-12T15:38:57.991Z,17.55
2018-10-12T15:41:27.317Z,17.55
2018-10-12T15:43:56.965Z,17.52
2018-10-12T15:46:26.302Z,17.49
2018-10-12T15:48:55.609Z,17.50
2018-10-12T15:51:25.342Z,17.48
2018-10-12T15:53:54.813Z,17.44
2018-10-12T15:56:24.086Z,17.42
2018-10-12T15:58:53.568Z,17.40
2018-10-12T16:01:23.497Z,17.35
2018-10-12T16:03:52.905Z,17.35
2018-10-12T16:06:22.524Z,17.32
2018-10-12T16:08:51.900Z,17.29
2018-10-12T16:11:21.490Z,17.28
2018-10-12T16:13:51.491Z,17.27
2018-10-12T16:16:21.641Z,17.23
2018-10-12T16:18:51.009Z,15.89
2018-10-12T16:21:21.157Z,17.15
2018-10-12T16:23:51.832Z,17.14
2018-10-12T16:26:22.553Z,17.11
2018-10-12T16:28:52.242Z,17.05
2018-10-12T16:31:22.434Z,17.07
2018-10-12T16:33:51.385Z,17.04
2018-10-12T16:36:20.511Z,17.01
2018-10-12T16:38:49.979Z,16.97
2018-10-12T16:41:19.114Z,16.94
2018-10-12T16:43:48.436Z,16.94
2018-10-12T16:46:18.209Z,16.92
2018-10-12T16:48:47.504Z,16.89
2018-10-12T16:51:16.828Z,16.81
2018-10-12T16:53:46.218Z,16.75
2018-10-12T16:56:15.337Z,16.71
2018-10-12T16:58:44.398Z,16.65
2018-10-12T17:01:13.696Z,16.62
2018-10-12T17:03:42.773Z,16.62
2018-10-12T17:06:11.958Z,16.57
2018-10-12T17:08:41.395Z,16.53
2018-10-12T17:11:10.312Z,16.54
2018-10-12T17:13:39.584Z,16.50
2018-10-12T17:16:08.931Z,16.47
2018-10-12T17:18:38.146Z,16.42
2018-10-12T17:21:07.847Z,16.41
2018-10-12T17:23:36.972Z,16.40
2018-10-12T17:26:06.415Z,16.39
2018-10-12T17:28:35.483Z,16.36
2018-10-12T17:31:05.823Z,16.31
2018-10-12T17:33:34.971Z,16.29
2018-10-12T17:36:04.310Z,16.28
2018-10-12T17:38:33.896Z,16.24
2018-10-12T17:41:11.914Z,16.16
2018-10-12T17:43:41.421Z,16.09
2018-10-12T17:46:10.891Z,16.06
2018-10-12T17:48:40.085Z,16.05
2018-10-12T17:51:09.282Z,16.03
2018-10-12T17:53:38.478Z,16.02
2018-10-12T17:56:08.249Z,16.02
2018-10-12T17:58:38.246Z,16.00
2018-10-12T18:01:07.680Z,15.96
2018-10-12T18:03:37.231Z,15.94
2018-10-12T18:06:07.116Z,15.90
2018-10-12T18:08:36.199Z,15.86
2018-10-12T18:11:05.719Z,15.83
2018-10-12T18:13:35.473Z,15.78
2018-10-12T18:16:05.087Z,15.78
2018-10-12T18:18:34.902Z,15.72
2018-10-12T18:21:04.299Z,15.68
2018-10-12T18:23:33.717Z,15.65
2018-10-12T18:26:03.141Z,15.57
2018-10-12T18:28:32.725Z,14.82
2018-10-12T18:31:02.063Z,15.57
2018-10-12T18:33:32.234Z,15.55
2018-10-12T18:36:01.842Z,15.51
2018-10-12T18:38:31.322Z,15.48
2018-10-12T18:41:00.778Z,15.46
2018-10-12T18:43:31.525Z,15.43
2018-10-12T18:46:01.171Z,15.41
2018-10-12T18:48:30.738Z,15.40
2018-10-12T18:51:00.455Z,15.40
2018-10-12T18:53:30.385Z,15.38
2018-10-12T18:56:00.097Z,15.35
2018-10-12T18:58:29.773Z,15.32
2018-10-12T19:00:59.774Z,15.32
2018-10-12T19:03:29.325Z,15.30
2018-10-12T19:05:58.705Z,15.28
2018-10-12T19:08:28.117Z,15.14
2018-10-12T19:10:57.719Z,15.28
2018-10-12T19:13:27.375Z,15.25
2018-10-12T19:15:56.702Z,15.25
2018-10-12T19:18:25.978Z,15.26
2018-10-12T19:20:55.640Z,15.22
2018-10-12T19:23:25.143Z,15.21
2018-10-12T19:25:54.449Z,15.19
2018-10-12T19:28:24.777Z,15.17
2018-10-12T19:30:54.160Z,15.17
2018-10-12T19:33:23.543Z,15.17
2018-10-12T19:35:53.368Z,15.17
2018-10-12T19:38:22.712Z,15.18
2018-10-12T19:40:52.062Z,15.17
2018-10-12T19:43:21.535Z,15.12
2018-10-12T19:45:50.817Z,15.07
2018-10-12T19:48:20.454Z,15.04
2018-10-12T19:50:50.131Z,15.02
2018-10-12T19:53:19.572Z,15.02
2018-10-12T19:55:48.949Z,15.00
2018-10-12T19:58:18.733Z,15.00
2018-10-12T20:00:48.200Z,14.99
2018-10-12T20:03:17.508Z,14.98
2018-10-12T20:05:46.987Z,14.97
2018-10-12T20:08:16.316Z,14.97
2018-10-12T20:10:45.627Z,14.95
2018-10-12T20:13:15.010Z,14.93
2018-10-12T20:15:44.269Z,14.90
2018-10-12T20:18:13.542Z,14.92
2018-10-12T20:20:42.975Z,14.92
2018-10-12T20:23:12.438Z,14.92
2018-10-12T20:25:41.701Z,14.91
2018-10-12T20:28:11.300Z,14.92
2018-10-12T20:30:40.836Z,14.92
2018-10-12T20:33:10.221Z,14.96
2018-10-12T20:35:39.746Z,14.96
2018-10-12T20:38:09.449Z,14.98
2018-10-12T20:40:38.779Z,14.98
2018-10-12T20:43:08.550Z,15.02
2018-10-12T20:45:37.719Z,15.04
2018-10-12T20:48:07.035Z,15.04
2018-10-12T20:50:36.515Z,15.06
2018-10-12T20:53:05.903Z,15.09
2018-10-12T20:55:35.263Z,15.11
2018-10-12T20:58:04.946Z,15.11
2018-10-12T21:00:34.439Z,15.16
2018-10-12T21:03:03.816Z,15.12
2018-10-12T21:05:33.558Z,15.12
2018-10-12T21:08:04.249Z,15.12
2018-10-12T21:10:33.693Z,15.12
2018-10-12T21:13:03.154Z,15.12
2018-10-12T21:15:32.816Z,15.10
2018-10-12T21:18:02.129Z,15.06
2018-10-12T21:20:31.774Z,15.05
2018-10-12T21:23:01.093Z,15.04
2018-10-12T21:25:30.771Z,15.01
2018-10-12T21:28:00.207Z,14.98
2018-10-12T21:30:29.410Z,14.98
2018-10-12T21:32:58.727Z,14.94
2018-10-12T21:35:28.233Z,14.93
2018-10-12T21:37:57.571Z,14.91
2018-10-12T21:40:27.246Z,14.90
2018-10-12T21:42:56.810Z,14.88
2018-10-12T21:45:26.061Z,14.87
2018-10-12T21:47:55.277Z,14.87
2018-10-12T21:50:25.062Z,14.87
2018-10-12T21:52:54.300Z,14.87
2018-10-12T21:55:24.145Z,14.86
2018-10-12T21:57:53.764Z,14.86
2018-10-12T22:00:23.955Z,14.87
2018-10-12T22:02:53.396Z,14.86
2018-10-12T22:05:23.276Z,14.87
2018-10-12T22:07:52.611Z,14.87
2018-10-12T22:10:22.631Z,14.86
2018-10-12T22:12:52.213Z,14.86
2018-10-12T22:15:21.539Z,14.88
2018-10-12T22:17:51.037Z,14.88
2018-10-12T22:20:20.448Z,14.89
2018-10-12T22:22:50.029Z,14.87
2018-10-12T22:25:19.612Z,14.88
2018-10-12T22:27:49.375Z,14.88
2018-10-12T22:30:18.488Z,14.88
2018-10-12T22:32:47.943Z,14.90
2018-10-12T22:35:17.452Z,14.93
2018-10-12T22:37:46.863Z,14.93
2018-10-12T22:40:16.358Z,14.93
2018-10-12T22:42:45.869Z,14.99
2018-10-12T22:45:15.254Z,15.00
2018-10-12T22:47:44.373Z,15.00
2018-10-12T22:50:14.030Z,15.01
2018-10-12T22:52:43.392Z,15.03
2018-10-12T22:55:12.473Z,15.01
2018-10-12T22:57:41.917Z,15.04
2018-10-12T23:00:11.347Z,15.05
2018-10-12T23:02:40.767Z,15.08
2018-10-12T23:05:10.405Z,15.11
2018-10-12T23:07:40.133Z,15.10
2018-10-12T23:10:09.461Z,15.11
2018-10-12T23:12:39.145Z,15.09
2018-10-12T23:15:08.322Z,15.11
2018-10-12T23:17:37.748Z,15.10
2018-10-12T23:20:07.333Z,15.13
2018-10-12T23:22:36.537Z,15.14
2018-10-12T23:25:05.887Z,15.15
2018-10-12T23:27:35.741Z,15.15
2018-10-12T23:30:05.815Z,15.14
2018-10-12T23:32:35.113Z,15.15
2018-10-12T23:35:04.548Z,15.15
2018-10-12T23:37:34.003Z,15.16
2018-10-12T23:40:03.291Z,15.18
2018-10-12T23:42:32.674Z,15.18
2018-10-12T23:45:01.847Z,15.18
2018-10-12T23:47:31.049Z,15.19
2018-10-12T23:50:00.669Z,15.21
2018-10-12T23:52:29.964Z,15.22
2018-10-12T23:54:59.254Z,15.23
2018-10-12T23:57:28.881Z,15.27
2018-10-12T23:59:58.014Z,15.27
